createdAt,value
2019-04-22T00:02:18.876Z,68.65
2019-04-22T00:05:01.124Z,68.96
2019-04-22T00:07:41.999Z,70.10
2019-04-22T00:10:14.511Z,68.34
2019-04-22T00:12:45.499Z,67.33
2019-04-22T00:15:08.636Z,68.21
2019-04-22T00:20:08.630Z,69.56
2019-04-22T00:22:38.037Z,68.29
2019-04-22T00:25:10.039Z,67.06
2019-04-22T00:30:09.085Z,68.44
2019-04-22T00:32:50.056Z,69.22
2019-04-22T00:35:19.296Z,68.47
2019-04-22T00:37:54.896Z,69.10
2019-04-22T00:40:21.003Z,69.34
2019-04-22T00:42:47.617Z,69.61
2019-04-22T00:45:24.787Z,69.09
2019-04-22T00:47:46.726Z,69.46
2019-04-22T00:52:40.517Z,70.64
2019-04-22T00:55:11.904Z,67.71
2019-04-22T00:57:38.864Z,68.49
2019-04-22T01:00:13.333Z,65.66
2019-04-22T01:02:46.088Z,68.95
2019-04-22T01:05:07.665Z,67.90
2019-04-22T01:07:38.330Z,69.51
2019-04-22T01:10:09.972Z,68.75
2019-04-22T01:12:31.901Z,70.18
2019-04-22T01:15:07.309Z,70.71
2019-04-22T01:17:34.250Z,71.03
2019-04-22T01:20:40.181Z,70.21
2019-04-22T01:23:23.713Z,69.17
2019-04-22T01:26:27.383Z,70.30
2019-04-22T01:29:33.400Z,70.18
2019-04-22T01:31:49.158Z,72.34
2019-04-22T01:34:33.113Z,69.62
2019-04-22T01:37:02.570Z,69.79
2019-04-22T01:39:43.624Z,67.05
2019-04-22T01:42:06.166Z,70.37
2019-04-22T01:44:40.549Z,69.86
2019-04-22T01:47:26.231Z,69.10
2019-04-22T01:49:33.531Z,69.01
2019-04-22T01:52:07.184Z,68.38
2019-04-22T01:57:20.892Z,69.09
2019-04-22T01:59:26.891Z,69.97
2019-04-22T02:02:02.646Z,70.14
2019-04-22T02:07:04.617Z,71.27
2019-04-22T02:12:25.744Z,70.83
2019-04-22T02:14:50.374Z,70.89
2019-04-22T02:17:25.295Z,71.12
2019-04-22T02:20:00.527Z,71.57
2019-04-22T02:22:39.788Z,68.49
2019-04-22T02:27:26.397Z,70.69
2019-04-22T02:29:47.421Z,71.84
2019-04-22T02:32:27.275Z,69.82
2019-04-22T02:39:52.895Z,68.73
2019-04-22T02:42:14.273Z,71.40
2019-04-22T02:44:44.760Z,70.67
2019-04-22T02:49:39.267Z,73.32
2019-04-22T02:52:14.977Z,72.53
2019-04-22T02:54:52.588Z,70.75
2019-04-22T02:57:12.308Z,70.81
2019-04-22T02:59:39.871Z,71.45
2019-04-22T03:02:10.341Z,71.24
2019-04-22T03:04:35.616Z,70.37
2019-04-22T03:06:57.301Z,71.77
2019-04-22T03:09:40.271Z,73.13
2019-04-22T03:12:21.588Z,72.95
2019-04-22T03:14:41.842Z,72.82
2019-04-22T03:17:18.365Z,72.92
2019-04-22T03:22:25.194Z,74.50
2019-04-22T03:27:14.707Z,75.00
2019-04-22T03:42:52.036Z,75.60
2019-04-22T03:45:19.238Z,76.70
2019-04-22T03:47:43.563Z,75.44
2019-04-22T03:50:15.915Z,75.94
2019-04-22T03:52:27.264Z,77.74
2019-04-22T03:57:48.832Z,75.96
2019-04-22T04:00:08.284Z,76.77
2019-04-22T04:02:38.820Z,77.97
2019-04-22T04:04:58.810Z,76.98
2019-04-22T04:10:13.034Z,76.72
2019-04-22T04:12:28.774Z,76.35
2019-04-22T04:17:29.283Z,75.56
2019-04-22T04:22:46.756Z,74.75
2019-04-22T04:32:34.393Z,75.90
2019-04-22T04:37:40.857Z,77.38
2019-04-22T04:40:05.191Z,77.30
2019-04-22T04:45:17.761Z,78.14
2019-04-22T04:47:30.994Z,76.56
2019-04-22T04:54:51.911Z,75.32
2019-04-22T04:57:14.899Z,77.77
2019-04-22T05:02:17.493Z,78.29
2019-04-22T05:05:00.002Z,75.30
2019-04-22T05:07:18.819Z,74.55
2019-04-22T05:09:51.593Z,76.32
2019-04-22T05:12:19.030Z,73.85
2019-04-22T05:14:28.851Z,73.92
2019-04-22T05:17:05.574Z,72.25
2019-04-22T05:19:33.111Z,71.30
2019-04-22T05:21:59.502Z,69.00
2019-04-22T05:26:58.710Z,67.30
2019-04-22T05:29:32.189Z,66.26
2019-04-22T05:31:56.584Z,66.30
2019-04-22T05:34:26.124Z,64.91
2019-04-22T05:37:12.320Z,62.80
2019-04-22T05:39:16.368Z,61.98
2019-04-22T05:41:50.887Z,61.51
2019-04-22T05:44:14.690Z,61.36
2019-04-22T05:46:40.182Z,59.89
2019-04-22T05:49:18.050Z,59.19
2019-04-22T05:51:44.693Z,58.90
2019-04-22T05:54:14.696Z,59.16
2019-04-22T05:56:41.244Z,58.26
2019-04-22T05:59:10.288Z,58.69
2019-04-22T06:01:45.143Z,59.41
2019-04-22T06:06:34.034Z,58.06
2019-04-22T06:09:05.206Z,58.71
2019-04-22T06:12:12.196Z,57.67
2019-04-22T06:15:23.382Z,57.56
2019-04-22T06:21:31.297Z,56.44
2019-04-22T06:26:40.902Z,57.03
2019-04-22T06:28:56.854Z,56.29
2019-04-22T06:31:28.317Z,56.04
2019-04-22T06:33:54.759Z,54.94
2019-04-22T06:36:24.435Z,54.74
2019-04-22T06:38:46.633Z,56.30
2019-04-22T06:41:21.112Z,54.42
2019-04-22T06:43:56.049Z,53.69
2019-04-22T06:46:25.696Z,55.39
2019-04-22T06:48:46.006Z,53.75
2019-04-22T06:51:20.187Z,52.91
2019-04-22T06:53:47.291Z,52.89
2019-04-22T06:56:16.224Z,52.83
2019-04-22T06:58:47.644Z,53.81
2019-04-22T07:01:23.138Z,51.02
2019-04-22T07:06:17.530Z,50.37
2019-04-22T07:09:06.647Z,50.41
2019-04-22T07:11:04.548Z,50.13
2019-04-22T07:13:34.309Z,49.30
2019-04-22T07:16:06.634Z,49.03
2019-04-22T07:18:48.190Z,48.12
2019-04-22T07:21:02.359Z,48.56
2019-04-22T07:23:34.835Z,49.16
2019-04-22T07:26:23.104Z,48.13
2019-04-22T07:28:49.159Z,47.78
2019-04-22T07:31:18.988Z,47.71
2019-04-22T07:34:08.180Z,46.91
2019-04-22T07:36:38.297Z,47.70
2019-04-22T07:38:42.452Z,46.33
2019-04-22T07:41:14.637Z,45.21
2019-04-22T07:44:02.955Z,44.88
2019-04-22T07:46:13.539Z,46.88
2019-04-22T07:51:13.321Z,44.70
2019-04-22T07:53:44.373Z,42.75
2019-04-22T07:56:11.848Z,43.74
2019-04-22T07:58:40.166Z,42.79
2019-04-22T08:01:09.095Z,42.30
2019-04-22T08:03:44.040Z,42.36
2019-04-22T08:06:11.699Z,41.84
2019-04-22T08:08:38.909Z,42.67
2019-04-22T08:11:22.124Z,41.45
2019-04-22T08:13:38.843Z,43.06
2019-04-22T08:16:08.050Z,41.42
2019-04-22T08:18:34.391Z,41.10
2019-04-22T08:23:31.763Z,40.40
2019-04-22T08:26:13.044Z,39.73
2019-04-22T08:28:31.940Z,40.11
2019-04-22T08:31:05.147Z,40.35
2019-04-22T08:33:29.523Z,40.14
2019-04-22T08:36:07.166Z,40.40
2019-04-22T08:38:37.031Z,38.04
2019-04-22T08:41:32.117Z,39.79
2019-04-22T08:44:02.318Z,35.86
2019-04-22T08:46:33.115Z,35.86
2019-04-22T08:49:50.723Z,34.67
2019-04-22T08:54:36.040Z,32.78
2019-04-22T08:57:15.538Z,31.85
2019-04-22T08:59:36.897Z,32.64
2019-04-22T09:02:12.050Z,32.07
2019-04-22T09:04:31.176Z,30.70
2019-04-22T09:07:14.111Z,32.59
2019-04-22T09:09:36.298Z,30.88
2019-04-22T09:12:02.852Z,31.44
2019-04-22T09:17:05.946Z,32.37
2019-04-22T09:19:30.098Z,31.97
2019-04-22T09:22:00.518Z,31.96
2019-04-22T09:24:29.515Z,32.20
2019-04-22T09:26:53.983Z,33.02
2019-04-22T09:32:00.321Z,32.53
2019-04-22T09:34:41.947Z,31.78
2019-04-22T09:37:11.959Z,31.90
2019-04-22T09:39:34.242Z,32.23
2019-04-22T09:42:07.925Z,33.75
2019-04-22T09:44:36.109Z,31.15
2019-04-22T09:47:00.264Z,32.60
2019-04-22T09:49:36.926Z,31.31
2019-04-22T09:52:07.972Z,30.74
2019-04-22T09:54:43.733Z,32.15
2019-04-22T09:56:58.012Z,32.06
2019-04-22T09:59:32.608Z,30.97
2019-04-22T10:02:13.319Z,30.86
2019-04-22T10:04:25.285Z,31.35
2019-04-22T10:06:44.341Z,29.02
2019-04-22T10:09:56.495Z,30.03
2019-04-22T10:11:50.954Z,30.66
2019-04-22T10:14:28.805Z,29.79
2019-04-22T10:16:51.942Z,32.40
2019-04-22T10:21:50.016Z,30.17
2019-04-22T10:24:19.253Z,32.05
2019-04-22T10:26:46.402Z,30.45
2019-04-22T10:29:20.344Z,30.54
2019-04-22T10:31:49.406Z,31.68
2019-04-22T10:34:07.167Z,29.72
2019-04-22T10:36:19.531Z,31.17
2019-04-22T10:38:48.722Z,29.95
2019-04-22T10:41:18.551Z,30.56
2019-04-22T10:43:47.599Z,29.88
2019-04-22T10:46:15.879Z,30.07
2019-04-22T10:48:44.246Z,28.64
2019-04-22T10:51:12.787Z,29.15
2019-04-22T10:53:39.931Z,28.89
2019-04-22T10:56:07.313Z,30.05
2019-04-22T10:58:34.935Z,29.12
2019-04-22T11:01:03.498Z,30.43
2019-04-22T11:03:31.152Z,28.42
2019-04-22T11:06:01.143Z,28.12
2019-04-22T11:08:38.916Z,29.50
2019-04-22T11:11:11.989Z,28.20
2019-04-22T11:13:28.304Z,29.59
2019-04-22T11:15:58.282Z,26.98
2019-04-22T11:18:27.370Z,28.98
2019-04-22T11:20:55.779Z,28.28
2019-04-22T11:23:24.727Z,28.80
2019-04-22T11:25:52.034Z,27.92
2019-04-22T11:28:19.914Z,28.34
2019-04-22T11:30:48.390Z,28.87
2019-04-22T11:33:16.362Z,28.03
2019-04-22T11:35:43.886Z,27.98
2019-04-22T11:38:12.808Z,28.85
2019-04-22T11:40:44.339Z,28.87
2019-04-22T11:43:10.157Z,29.83
2019-04-22T11:45:39.445Z,28.89
2019-04-22T11:48:07.012Z,29.19
2019-04-22T11:50:35.658Z,30.28
2019-04-22T11:53:03.145Z,29.82
2019-04-22T11:55:30.926Z,28.68
2019-04-22T11:57:59.046Z,29.48
2019-04-22T12:01:06.882Z,30.26
2019-04-22T12:03:33.972Z,30.45
2019-04-22T12:06:02.093Z,31.40
2019-04-22T12:08:31.190Z,31.24
2019-04-22T12:11:22.748Z,31.06
2019-04-22T12:13:51.640Z,32.33
2019-04-22T12:16:19.337Z,31.71
2019-04-22T12:18:47.256Z,31.41
2019-04-22T12:21:17.026Z,30.02
2019-04-22T12:23:45.170Z,32.51
2019-04-22T12:26:18.821Z,30.83
2019-04-22T12:28:43.087Z,31.93
2019-04-22T12:31:11.272Z,32.66
2019-04-22T12:33:39.463Z,32.68
2019-04-22T12:36:08.606Z,32.91
2019-04-22T12:38:37.767Z,33.67
2019-04-22T12:41:09.968Z,32.47
2019-04-22T12:43:35.494Z,32.25
2019-04-22T12:46:02.501Z,33.26
2019-04-22T12:48:30.811Z,35.21
2019-04-22T12:50:58.632Z,33.28
2019-04-22T12:53:27.917Z,33.53
2019-04-22T12:55:55.392Z,32.81
2019-04-22T12:58:25.552Z,33.93
2019-04-22T13:00:54.591Z,33.53
2019-04-22T13:03:22.480Z,33.74
2019-04-22T13:05:51.436Z,33.64
2019-04-22T13:08:20.002Z,34.72
2019-04-22T13:10:56.809Z,33.55
2019-04-22T13:13:18.776Z,32.97
2019-04-22T13:15:46.820Z,35.21
2019-04-22T13:18:26.990Z,34.28
2019-04-22T13:20:44.578Z,33.52
2019-04-22T13:23:11.714Z,33.65
2019-04-22T13:25:39.052Z,33.66
2019-04-22T13:28:07.217Z,34.37
2019-04-22T13:30:36.844Z,33.14
2019-04-22T13:33:05.182Z,32.37
2019-04-22T13:35:34.049Z,32.40
2019-04-22T13:38:01.302Z,34.07
2019-04-22T13:40:59.257Z,33.86
2019-04-22T13:43:11.095Z,32.46
2019-04-22T13:45:40.755Z,32.53
2019-04-22T13:48:24.531Z,33.12
2019-04-22T13:51:07.314Z,32.16
2019-04-22T13:55:56.570Z,33.15
2019-04-22T13:58:18.544Z,32.80
2019-04-22T14:00:34.424Z,33.80
2019-04-22T14:03:22.568Z,33.55
2019-04-22T14:08:38.691Z,33.77
2019-04-22T14:11:16.832Z,32.96
2019-04-22T14:13:35.025Z,34.06
2019-04-22T14:16:02.553Z,33.17
2019-04-22T14:18:30.760Z,31.75
2019-04-22T14:20:58.774Z,30.67
2019-04-22T14:23:26.802Z,31.53
2019-04-22T14:25:54.923Z,32.40
2019-04-22T14:28:23.832Z,32.96
2019-04-22T14:30:50.886Z,33.91
2019-04-22T14:33:18.261Z,32.34
2019-04-22T14:35:47.966Z,32.67
2019-04-22T14:38:16.378Z,32.94
2019-04-22T14:40:45.484Z,33.77
2019-04-22T14:43:57.983Z,32.47
2019-04-22T14:51:14.825Z,33.04
2019-04-22T14:53:44.927Z,32.75
2019-04-22T14:55:55.794Z,32.39
2019-04-22T14:58:24.606Z,33.63
2019-04-22T15:00:53.718Z,33.23
2019-04-22T15:03:21.934Z,34.21
2019-04-22T15:06:10.560Z,33.39
2019-04-22T15:08:39.517Z,33.63
2019-04-22T15:11:08.627Z,33.17
2019-04-22T15:13:36.528Z,32.56
2019-04-22T15:16:44.830Z,33.05
2019-04-22T15:21:56.641Z,33.71
2019-04-22T15:24:25.366Z,33.66
2019-04-22T15:27:35.305Z,34.18
2019-04-22T15:30:03.563Z,34.30
2019-04-22T15:32:33.466Z,33.66
2019-04-22T15:35:01.940Z,33.17
2019-04-22T15:37:31.202Z,34.66
2019-04-22T15:39:58.617Z,34.69
2019-04-22T15:42:31.827Z,34.33
2019-04-22T15:45:08.921Z,35.47
2019-04-22T15:47:37.752Z,34.57
2019-04-22T15:50:46.774Z,34.19
2019-04-22T15:53:13.929Z,34.35
2019-04-22T15:56:00.826Z,34.28
2019-04-22T15:58:30.185Z,35.59
2019-04-22T16:01:08.827Z,34.72
2019-04-22T16:03:27.003Z,34.72
2019-04-22T16:05:54.390Z,35.45
2019-04-22T16:08:43.681Z,35.00
2019-04-22T16:11:11.753Z,34.86
2019-04-22T16:13:40.171Z,35.55
2019-04-22T16:16:10.247Z,35.37
2019-04-22T16:18:38.126Z,34.91
2019-04-22T16:21:32.508Z,35.69
2019-04-22T16:24:34.427Z,34.98
2019-04-22T16:27:06.547Z,35.20
2019-04-22T16:29:34.522Z,36.27
2019-04-22T16:32:03.037Z,35.67
2019-04-22T16:34:31.645Z,36.35
2019-04-22T16:36:58.942Z,36.08
2019-04-22T16:39:26.947Z,35.81
2019-04-22T16:41:55.079Z,36.78
2019-04-22T16:44:22.677Z,36.48
2019-04-22T16:46:51.934Z,36.97
2019-04-22T16:49:21.453Z,37.46
2019-04-22T16:51:49.994Z,37.39
2019-04-22T16:54:20.137Z,37.34
2019-04-22T16:56:48.640Z,38.14
2019-04-22T16:59:18.989Z,38.30
2019-04-22T17:02:06.533Z,38.10
2019-04-22T17:04:53.528Z,38.30
2019-04-22T17:07:22.365Z,38.83
2019-04-22T17:09:52.046Z,39.06
2019-04-22T17:12:21.614Z,39.35
2019-04-22T17:14:56.289Z,39.98
2019-04-22T17:17:20.240Z,39.68
2019-04-22T17:19:49.370Z,40.19
2019-04-22T17:22:18.015Z,40.65
2019-04-22T17:24:45.796Z,40.95
2019-04-22T17:27:14.792Z,40.89
2019-04-22T17:29:44.270Z,40.83
2019-04-22T17:32:15.913Z,40.66
2019-04-22T17:34:43.516Z,40.56
2019-04-22T17:37:20.674Z,41.18
2019-04-22T17:39:49.062Z,41.47
2019-04-22T17:42:29.490Z,42.04
2019-04-22T17:45:22.101Z,42.03
2019-04-22T17:48:12.767Z,42.00
2019-04-22T17:53:40.299Z,42.98
2019-04-22T17:58:07.947Z,43.83
2019-04-22T18:03:12.963Z,43.82
2019-04-22T18:05:41.018Z,44.55
2019-04-22T18:08:17.676Z,44.90
2019-04-22T18:10:47.639Z,44.77
2019-04-22T18:13:28.249Z,45.05
2019-04-22T18:15:48.735Z,45.34
2019-04-22T18:18:21.595Z,45.81
2019-04-22T18:20:41.092Z,46.03
2019-04-22T18:23:05.665Z,46.38
2019-04-22T18:25:48.823Z,46.55
2019-04-22T18:28:17.661Z,47.39
2019-04-22T18:30:41.193Z,47.64
2019-04-22T18:33:13.293Z,48.40
2019-04-22T18:35:40.060Z,49.11
2019-04-22T18:38:25.650Z,48.44
2019-04-22T18:40:59.038Z,49.02
2019-04-22T18:43:34.024Z,48.91
2019-04-22T18:48:46.415Z,49.79
2019-04-22T18:56:42.162Z,50.06
2019-04-22T18:58:59.529Z,50.74
2019-04-22T19:01:19.849Z,51.08
2019-04-22T19:03:58.198Z,51.05
2019-04-22T19:09:13.798Z,51.75
2019-04-22T19:11:42.797Z,51.94
2019-04-22T19:14:03.709Z,52.08
2019-04-22T19:16:36.280Z,52.12
2019-04-22T19:19:30.120Z,53.03
2019-04-22T19:21:34.031Z,53.13
2019-04-22T19:24:01.401Z,53.85
2019-04-22T19:26:42.498Z,54.54
2019-04-22T19:29:00.409Z,54.80
2019-04-22T19:31:28.635Z,54.90
2019-04-22T19:34:00.783Z,55.36
2019-04-22T19:36:26.365Z,55.15
2019-04-22T19:38:52.513Z,56.06
2019-04-22T19:44:00.648Z,56.26
2019-04-22T19:46:19.384Z,55.92
2019-04-22T19:49:47.753Z,56.82
2019-04-22T19:52:11.468Z,57.11
2019-04-22T19:54:34.162Z,56.77
2019-04-22T19:56:59.004Z,57.08
2019-04-22T20:02:33.259Z,57.50
2019-04-22T20:05:26.217Z,57.43
2019-04-22T20:07:48.737Z,57.43
2019-04-22T20:10:20.711Z,57.74
2019-04-22T20:12:48.658Z,58.12
2019-04-22T20:15:16.495Z,57.72
2019-04-22T20:18:11.756Z,57.53
2019-04-22T20:20:23.065Z,58.29
2019-04-22T20:22:44.526Z,57.74
2019-04-22T20:25:05.472Z,57.61
2019-04-22T20:27:47.315Z,58.15
2019-04-22T20:30:14.087Z,57.60
2019-04-22T20:32:37.654Z,57.96
2019-04-22T20:37:51.064Z,58.09
2019-04-22T20:40:57.471Z,57.95
2019-04-22T20:43:35.647Z,58.15
2019-04-22T20:46:17.446Z,57.67
2019-04-22T20:48:51.536Z,58.02
2019-04-22T20:51:14.966Z,58.41
2019-04-22T20:53:44.065Z,58.32
2019-04-22T20:56:11.481Z,58.28
2019-04-22T20:58:42.904Z,59.01
2019-04-22T21:00:59.844Z,58.32
2019-04-22T21:03:29.372Z,58.90
2019-04-22T21:06:00.712Z,58.92
2019-04-22T21:08:36.638Z,58.88
2019-04-22T21:10:59.966Z,58.94
2019-04-22T21:13:52.936Z,57.98
2019-04-22T21:16:27.038Z,58.46
2019-04-22T21:18:47.233Z,58.14
2019-04-22T21:21:26.480Z,57.85
2019-04-22T21:24:36.065Z,57.84
2019-04-22T21:27:14.038Z,58.12
2019-04-22T21:32:38.529Z,57.58
2019-04-22T21:35:22.943Z,57.56
2019-04-22T21:38:08.728Z,57.60
2019-04-22T21:41:09.882Z,58.17
2019-04-22T21:44:21.283Z,58.61
2019-04-22T21:47:35.304Z,58.53
2019-04-22T21:55:43.591Z,58.73
2019-04-22T21:58:33.264Z,58.98
2019-04-22T22:01:21.902Z,59.29
2019-04-22T22:07:05.677Z,59.67
2019-04-22T22:10:16.258Z,59.71
2019-04-22T22:13:11.083Z,59.94
2019-04-22T22:15:56.283Z,60.42
2019-04-22T22:19:22.466Z,60.10
2019-04-22T22:22:05.688Z,60.82
2019-04-22T22:24:55.094Z,61.27
2019-04-22T22:30:42.847Z,60.41
2019-04-22T22:33:17.476Z,61.03
2019-04-22T22:39:03.985Z,61.55
2019-04-22T22:41:13.981Z,61.01
2019-04-22T22:44:08.953Z,61.56
2019-04-22T22:47:25.844Z,61.67
2019-04-22T22:49:49.837Z,62.10
2019-04-22T22:53:06.756Z,62.17
2019-04-22T22:55:49.591Z,62.55
2019-04-22T22:58:16.392Z,62.49
2019-04-22T23:00:42.781Z,61.76
2019-04-22T23:06:48.330Z,62.51
2019-04-22T23:09:13.473Z,62.28
2019-04-22T23:14:59.314Z,61.31
2019-04-22T23:26:42.015Z,60.18
2019-04-22T23:29:46.352Z,60.17
2019-04-22T23:35:53.187Z,59.12
2019-04-22T23:44:14.280Z,58.53
2019-04-22T23:50:33.928Z,59.30
2019-04-22T23:56:26.638Z,59.86
2019-04-22T23:59:38.637Z,60.00
